sensor_id;sensor_type;location;lat;lon;timestamp;temperature;humidity
13488;DHT22;6816;48.506;9.050;2023-08-17T00:00:42;21.30;99.90
13488;DHT22;6816;48.506;9.050;2023-08-17T00:03:43;21.20;99.90
13488;DHT22;6816;48.506;9.050;2023-08-17T00:06:49;21.20;99.90
13488;DHT22;6816;48.506;9.050;2023-08-17T00:09:49;21.20;99.90
13488;DHT22;6816;48.506;9.050;2023-08-17T00:12:50;21.10;99.90
13488;DHT22;6816;48.506;9.050;2023-08-17T00:15:50;21.10;99.90
13488;DHT22;6816;48.506;9.050;2023-08-17T00:18:51;21.10;99.90
13488;DHT22;6816;48.506;9.050;2023-08-17T00:21:52;21.10;99.90
13488;DHT22;6816;48.506;9.050;2023-08-17T00:24:53;21.00;99.90
13488;DHT22;6816;48.506;9.050;2023-08-17T00:27:53;21.00;99.90
13488;DHT22;6816;48.506;9.050;2023-08-17T00:30:54;21.00;99.90
13488;DHT22;6816;48.506;9.050;2023-08-17T00:33:54;21.00;99.90
13488;DHT22;6816;48.506;9.050;2023-08-17T00:36:55;21.00;99.90
13488;DHT22;6816;48.506;9.050;2023-08-17T00:39:56;20.90;99.90
13488;DHT22;6816;48.506;9.050;2023-08-17T00:42:56;20.90;99.90
13488;DHT22;6816;48.506;9.050;2023-08-17T00:45:57;20.90;99.90
13488;DHT22;6816;48.506;9.050;2023-08-17T00:48:58;20.90;99.90
13488;DHT22;6816;48.506;9.050;2023-08-17T00:52:00;20.90;99.90
13488;DHT22;6816;48.506;9.050;2023-08-17T00:55:05;20.80;99.90
13488;DHT22;6816;48.506;9.050;2023-08-17T00:58:06;20.80;99.90
13488;DHT22;6816;48.506;9.050;2023-08-17T01:01:06;20.80;99.90
13488;DHT22;6816;48.506;9.050;2023-08-17T01:04:07;20.80;99.90
13488;DHT22;6816;48.506;9.050;2023-08-17T01:07:08;20.70;99.90
13488;DHT22;6816;48.506;9.050;2023-08-17T01:10:09;20.70;99.90
13488;DHT22;6816;48.506;9.050;2023-08-17T01:13:30;20.70;99.90
13488;DHT22;6816;48.506;9.050;2023-08-17T01:16:49;20.70;99.90
13488;DHT22;6816;48.506;9.050;2023-08-17T01:19:52;20.70;99.90
13488;DHT22;6816;48.506;9.050;2023-08-17T01:22:56;20.60;99.90
13488;DHT22;6816;48.506;9.050;2023-08-17T01:25:58;20.60;99.90
13488;DHT22;6816;48.506;9.050;2023-08-17T01:28:59;20.60;99.90
13488;DHT22;6816;48.506;9.050;2023-08-17T01:32:26;20.60;99.90
13488;DHT22;6816;48.506;9.050;2023-08-17T01:35:44;20.60;99.90
13488;DHT22;6816;48.506;9.050;2023-08-17T01:38:47;20.60;99.90
13488;DHT22;6816;48.506;9.050;2023-08-17T01:41:50;20.60;99.90
13488;DHT22;6816;48.506;9.050;2023-08-17T01:44:52;20.60;99.90
13488;DHT22;6816;48.506;9.050;2023-08-17T01:47:54;20.60;99.90
13488;DHT22;6816;48.506;9.050;2023-08-17T01:50:55;20.60;99.90
13488;DHT22;6816;48.506;9.050;2023-08-17T01:53:55;20.60;99.90
13488;DHT22;6816;48.506;9.050;2023-08-17T01:56:56;20.70;99.90
13488;DHT22;6816;48.506;9.050;2023-08-17T01:59:56;20.70;99.90
13488;DHT22;6816;48.506;9.050;2023-08-17T02:02:57;20.70;99.90
13488;DHT22;6816;48.506;9.050;2023-08-17T02:05:58;20.70;99.90
13488;DHT22;6816;48.506;9.050;2023-08-17T02:08:59;20.70;99.90
13488;DHT22;6816;48.506;9.050;2023-08-17T02:11:59;20.80;99.90
13488;DHT22;6816;48.506;9.050;2023-08-17T02:15:00;20.80;99.90
13488;DHT22;6816;48.506;9.050;2023-08-17T02:18:01;20.80;99.90
13488;DHT22;6816;48.506;9.050;2023-08-17T02:21:01;20.90;99.90
13488;DHT22;6816;48.506;9.050;2023-08-17T02:24:02;20.90;99.90
13488;DHT22;6816;48.506;9.050;2023-08-17T02:27:03;20.90;99.90
13488;DHT22;6816;48.506;9.050;2023-08-17T02:30:04;21.00;99.90
13488;DHT22;6816;48.506;9.050;2023-08-17T02:33:05;21.00;99.90
13488;DHT22;6816;48.506;9.050;2023-08-17T02:36:05;21.00;99.90
13488;DHT22;6816;48.506;9.050;2023-08-17T02:39:06;21.00;99.90
13488;DHT22;6816;48.506;9.050;2023-08-17T02:42:07;21.00;99.90
13488;DHT22;6816;48.506;9.050;2023-08-17T02:45:08;21.00;99.90
13488;DHT22;6816;48.506;9.050;2023-08-17T02:48:09;21.00;99.90
13488;DHT22;6816;48.506;9.050;2023-08-17T02:51:10;21.00;99.90
13488;DHT22;6816;48.506;9.050;2023-08-17T02:54:10;21.10;99.90
13488;DHT22;6816;48.506;9.050;2023-08-17T02:57:12;21.10;99.90
13488;DHT22;6816;48.506;9.050;2023-08-17T03:00:13;21.10;99.90
13488;DHT22;6816;48.506;9.050;2023-08-17T03:03:14;21.10;99.90
13488;DHT22;6816;48.506;9.050;2023-08-17T03:06:14;21.10;99.90
13488;DHT22;6816;48.506;9.050;2023-08-17T03:09:15;21.10;99.90
13488;DHT22;6816;48.506;9.050;2023-08-17T03:12:15;21.10;99.90
13488;DHT22;6816;48.506;9.050;2023-08-17T03:15:16;21.10;99.90
13488;DHT22;6816;48.506;9.050;2023-08-17T03:18:17;21.10;99.90
13488;DHT22;6816;48.506;9.050;2023-08-17T03:21:17;21.10;99.90
13488;DHT22;6816;48.506;9.050;2023-08-17T03:24:19;21.10;99.90
13488;DHT22;6816;48.506;9.050;2023-08-17T03:27:19;21.10;99.90
13488;DHT22;6816;48.506;9.050;2023-08-17T03:30:20;21.10;99.90
13488;DHT22;6816;48.506;9.050;2023-08-17T03:33:20;21.10;99.90
13488;DHT22;6816;48.506;9.050;2023-08-17T03:36:21;21.10;99.90
13488;DHT22;6816;48.506;9.050;2023-08-17T03:39:22;21.10;99.90
13488;DHT22;6816;48.506;9.050;2023-08-17T03:42:22;21.10;99.90
13488;DHT22;6816;48.506;9.050;2023-08-17T03:45:23;21.20;99.90
13488;DHT22;6816;48.506;9.050;2023-08-17T03:48:23;21.10;99.90
13488;DHT22;6816;48.506;9.050;2023-08-17T03:51:24;21.10;99.90
13488;DHT22;6816;48.506;9.050;2023-08-17T03:54:25;21.10;99.90
13488;DHT22;6816;48.506;9.050;2023-08-17T03:57:25;21.10;99.90
13488;DHT22;6816;48.506;9.050;2023-08-17T04:00:26;21.10;99.90
13488;DHT22;6816;48.506;9.050;2023-08-17T04:03:26;21.10;99.90
13488;DHT22;6816;48.506;9.050;2023-08-17T04:06:27;21.10;99.90
13488;DHT22;6816;48.506;9.050;2023-08-17T04:09:27;21.10;99.90
13488;DHT22;6816;48.506;9.050;2023-08-17T04:12:28;21.10;99.90
13488;DHT22;6816;48.506;9.050;2023-08-17T04:15:29;21.10;99.90
13488;DHT22;6816;48.506;9.050;2023-08-17T04:18:29;21.00;99.90
13488;DHT22;6816;48.506;9.050;2023-08-17T04:21:30;21.00;99.90
13488;DHT22;6816;48.506;9.050;2023-08-17T04:24:32;21.00;99.90
13488;DHT22;6816;48.506;9.050;2023-08-17T04:27:33;21.00;99.90
13488;DHT22;6816;48.506;9.050;2023-08-17T04:30:33;21.00;99.90
13488;DHT22;6816;48.506;9.050;2023-08-17T04:33:35;21.00;99.90
13488;DHT22;6816;48.506;9.050;2023-08-17T04:36:36;21.10;99.90
13488;DHT22;6816;48.506;9.050;2023-08-17T04:39:37;21.10;99.90
13488;DHT22;6816;48.506;9.050;2023-08-17T04:42:38;21.10;99.90
13488;DHT22;6816;48.506;9.050;2023-08-17T04:45:38;21.10;99.90
13488;DHT22;6816;48.506;9.050;2023-08-17T04:48:39;21.10;99.90
13488;DHT22;6816;48.506;9.050;2023-08-17T04:51:40;21.10;99.90
13488;DHT22;6816;48.506;9.050;2023-08-17T04:54:40;21.20;99.90
13488;DHT22;6816;48.506;9.050;2023-08-17T04:57:41;21.10;99.90
13488;DHT22;6816;48.506;9.050;2023-08-17T05:00:41;21.30;99.90
13488;DHT22;6816;48.506;9.050;2023-08-17T05:03:42;21.20;99.90
13488;DHT22;6816;48.506;9.050;2023-08-17T05:06:43;21.20;99.90
13488;DHT22;6816;48.506;9.050;2023-08-17T05:09:43;21.20;99.90
13488;DHT22;6816;48.506;9.050;2023-08-17T05:12:44;21.30;99.90
13488;DHT22;6816;48.506;9.050;2023-08-17T05:15:45;21.30;99.90
13488;DHT22;6816;48.506;9.050;2023-08-17T05:18:45;21.30;99.90
13488;DHT22;6816;48.506;9.050;2023-08-17T05:21:46;21.30;99.90
13488;DHT22;6816;48.506;9.050;2023-08-17T05:24:49;21.40;99.90
13488;DHT22;6816;48.506;9.050;2023-08-17T05:27:49;21.40;99.90
13488;DHT22;6816;48.506;9.050;2023-08-17T05:30:50;21.40;99.90
13488;DHT22;6816;48.506;9.050;2023-08-17T05:33:51;21.40;99.90
13488;DHT22;6816;48.506;9.050;2023-08-17T05:36:52;21.40;99.90
13488;DHT22;6816;48.506;9.050;2023-08-17T05:39:52;21.50;99.90
13488;DHT22;6816;48.506;9.050;2023-08-17T05:42:53;21.50;99.90
13488;DHT22;6816;48.506;9.050;2023-08-17T05:45:54;21.50;99.90
13488;DHT22;6816;48.506;9.050;2023-08-17T05:48:54;21.50;99.90
13488;DHT22;6816;48.506;9.050;2023-08-17T05:51:55;21.50;99.90
13488;DHT22;6816;48.506;9.050;2023-08-17T05:54:55;21.50;99.90
13488;DHT22;6816;48.506;9.050;2023-08-17T05:57:56;21.60;99.90
13488;DHT22;6816;48.506;9.050;2023-08-17T06:01:07;21.60;99.90
13488;DHT22;6816;48.506;9.050;2023-08-17T06:04:08;21.60;99.90
13488;DHT22;6816;48.506;9.050;2023-08-17T06:07:08;21.60;99.90
13488;DHT22;6816;48.506;9.050;2023-08-17T06:10:10;21.60;99.90
13488;DHT22;6816;48.506;9.050;2023-08-17T06:13:11;21.70;99.90
13488;DHT22;6816;48.506;9.050;2023-08-17T06:16:12;21.70;99.90
13488;DHT22;6816;48.506;9.050;2023-08-17T06:19:12;21.70;99.90
13488;DHT22;6816;48.506;9.050;2023-08-17T06:22:13;21.80;99.90
13488;DHT22;6816;48.506;9.050;2023-08-17T06:25:14;21.80;99.90
13488;DHT22;6816;48.506;9.050;2023-08-17T06:28:14;21.80;99.90
13488;DHT22;6816;48.506;9.050;2023-08-17T06:31:15;21.80;99.90
13488;DHT22;6816;48.506;9.050;2023-08-17T06:34:16;21.80;99.90
13488;DHT22;6816;48.506;9.050;2023-08-17T06:37:16;21.90;99.90
13488;DHT22;6816;48.506;9.050;2023-08-17T06:40:17;21.90;99.90
13488;DHT22;6816;48.506;9.050;2023-08-17T06:43:18;21.90;99.90
13488;DHT22;6816;48.506;9.050;2023-08-17T06:46:18;22.00;99.90
13488;DHT22;6816;48.506;9.050;2023-08-17T06:49:19;22.00;99.90
13488;DHT22;6816;48.506;9.050;2023-08-17T06:52:19;22.00;99.90
13488;DHT22;6816;48.506;9.050;2023-08-17T06:55:20;22.10;99.90
13488;DHT22;6816;48.506;9.050;2023-08-17T06:58:21;22.10;99.90
13488;DHT22;6816;48.506;9.050;2023-08-17T07:01:21;22.10;99.90
13488;DHT22;6816;48.506;9.050;2023-08-17T07:04:22;22.20;99.90
13488;DHT22;6816;48.506;9.050;2023-08-17T07:07:22;22.20;99.90
13488;DHT22;6816;48.506;9.050;2023-08-17T07:10:23;22.20;99.90
13488;DHT22;6816;48.506;9.050;2023-08-17T07:13:24;22.20;99.90
13488;DHT22;6816;48.506;9.050;2023-08-17T07:16:24;22.20;99.90
13488;DHT22;6816;48.506;9.050;2023-08-17T07:19:25;22.30;99.90
13488;DHT22;6816;48.506;9.050;2023-08-17T07:22:25;22.30;99.90
13488;DHT22;6816;48.506;9.050;2023-08-17T07:25:26;22.30;99.90
13488;DHT22;6816;48.506;9.050;2023-08-17T07:28:27;22.30;99.90
13488;DHT22;6816;48.506;9.050;2023-08-17T07:31:28;22.30;99.90
13488;DHT22;6816;48.506;9.050;2023-08-17T07:34:29;22.30;99.90
13488;DHT22;6816;48.506;9.050;2023-08-17T07:37:31;22.30;99.90
13488;DHT22;6816;48.506;9.050;2023-08-17T07:40:33;22.30;99.90
13488;DHT22;6816;48.506;9.050;2023-08-17T07:43:34;22.40;99.90
13488;DHT22;6816;48.506;9.050;2023-08-17T07:46:34;22.30;99.90
13488;DHT22;6816;48.506;9.050;2023-08-17T07:49:35;22.40;99.90
13488;DHT22;6816;48.506;9.050;2023-08-17T07:52:36;22.40;99.90
13488;DHT22;6816;48.506;9.050;2023-08-17T07:55:36;22.40;99.90
13488;DHT22;6816;48.506;9.050;2023-08-17T07:58:37;22.40;99.90
13488;DHT22;6816;48.506;9.050;2023-08-17T08:01:38;22.50;99.90
13488;DHT22;6816;48.506;9.050;2023-08-17T08:04:40;22.50;99.90
13488;DHT22;6816;48.506;9.050;2023-08-17T08:07:40;22.60;99.90
13488;DHT22;6816;48.506;9.050;2023-08-17T08:10:42;22.60;99.90
13488;DHT22;6816;48.506;9.050;2023-08-17T08:13:42;22.70;99.90
13488;DHT22;6816;48.506;9.050;2023-08-17T08:16:43;22.70;99.90
13488;DHT22;6816;48.506;9.050;2023-08-17T08:19:43;22.80;99.90
13488;DHT22;6816;48.506;9.050;2023-08-17T08:22:45;22.90;99.90
13488;DHT22;6816;48.506;9.050;2023-08-17T08:25:46;22.90;99.90
13488;DHT22;6816;48.506;9.050;2023-08-17T08:28:46;22.90;99.90
13488;DHT22;6816;48.506;9.050;2023-08-17T08:31:47;23.00;99.90
13488;DHT22;6816;48.506;9.050;2023-08-17T08:34:48;23.00;99.90
13488;DHT22;6816;48.506;9.050;2023-08-17T08:37:48;23.00;99.90
13488;DHT22;6816;48.506;9.050;2023-08-17T08:40:49;23.10;99.90
13488;DHT22;6816;48.506;9.050;2023-08-17T08:43:50;23.10;99.90
13488;DHT22;6816;48.506;9.050;2023-08-17T08:46:50;23.30;99.90
13488;DHT22;6816;48.506;9.050;2023-08-17T08:50:00;23.20;99.90
13488;DHT22;6816;48.506;9.050;2023-08-17T08:53:17;23.30;99.90
13488;DHT22;6816;48.506;9.050;2023-08-17T08:56:19;23.40;99.90
13488;DHT22;6816;48.506;9.050;2023-08-17T08:59:23;23.50;99.90
13488;DHT22;6816;48.506;9.050;2023-08-17T09:02:24;23.60;99.90
13488;DHT22;6816;48.506;9.050;2023-08-17T09:05:25;23.70;99.90
13488;DHT22;6816;48.506;9.050;2023-08-17T09:08:28;23.80;99.90
13488;DHT22;6816;48.506;9.050;2023-08-17T09:11:29;23.90;99.90
13488;DHT22;6816;48.506;9.050;2023-08-17T09:14:30;23.90;99.90
13488;DHT22;6816;48.506;9.050;2023-08-17T09:17:32;24.00;99.90
13488;DHT22;6816;48.506;9.050;2023-08-17T09:20:42;24.00;99.90
13488;DHT22;6816;48.506;9.050;2023-08-17T09:23:43;24.10;99.90
13488;DHT22;6816;48.506;9.050;2023-08-17T09:26:43;24.20;99.90
13488;DHT22;6816;48.506;9.050;2023-08-17T09:29:44;24.30;99.90
13488;DHT22;6816;48.506;9.050;2023-08-17T09:32:47;24.40;99.90
13488;DHT22;6816;48.506;9.050;2023-08-17T09:35:49;24.50;99.90
13488;DHT22;6816;48.506;9.050;2023-08-17T09:38:53;24.50;99.90
13488;DHT22;6816;48.506;9.050;2023-08-17T09:41:55;24.60;99.90
13488;DHT22;6816;48.506;9.050;2023-08-17T09:44:55;24.70;99.90
13488;DHT22;6816;48.506;9.050;2023-08-17T09:48:01;24.80;99.90
13488;DHT22;6816;48.506;9.050;2023-08-17T09:51:02;24.90;99.90
13488;DHT22;6816;48.506;9.050;2023-08-17T09:54:03;25.00;99.90
13488;DHT22;6816;48.506;9.050;2023-08-17T09:57:04;25.10;99.90
13488;DHT22;6816;48.506;9.050;2023-08-17T10:00:06;25.20;99.90
13488;DHT22;6816;48.506;9.050;2023-08-17T10:03:07;25.30;99.90
13488;DHT22;6816;48.506;9.050;2023-08-17T10:06:10;25.40;99.90
13488;DHT22;6816;48.506;9.050;2023-08-17T10:09:13;25.50;99.90
13488;DHT22;6816;48.506;9.050;2023-08-17T10:12:17;25.60;99.90
13488;DHT22;6816;48.506;9.050;2023-08-17T10:15:18;25.70;99.90
13488;DHT22;6816;48.506;9.050;2023-08-17T10:18:38;25.70;99.90
13488;DHT22;6816;48.506;9.050;2023-08-17T10:21:50;25.90;99.90
13488;DHT22;6816;48.506;9.050;2023-08-17T10:24:54;26.00;99.90
13488;DHT22;6816;48.506;9.050;2023-08-17T10:27:56;26.10;99.90
13488;DHT22;6816;48.506;9.050;2023-08-17T10:30:57;26.20;99.90
13488;DHT22;6816;48.506;9.050;2023-08-17T10:33:58;26.30;99.90
13488;DHT22;6816;48.506;9.050;2023-08-17T10:36:59;26.40;99.90
13488;DHT22;6816;48.506;9.050;2023-08-17T10:40:00;26.50;99.90
13488;DHT22;6816;48.506;9.050;2023-08-17T10:43:01;26.60;99.90
13488;DHT22;6816;48.506;9.050;2023-08-17T10:46:17;26.70;99.90
13488;DHT22;6816;48.506;9.050;2023-08-17T10:49:25;26.80;99.90
13488;DHT22;6816;48.506;9.050;2023-08-17T10:52:34;26.90;99.90
13488;DHT22;6816;48.506;9.050;2023-08-17T10:55:45;27.00;99.90
13488;DHT22;6816;48.506;9.050;2023-08-17T10:58:51;27.00;99.90
13488;DHT22;6816;48.506;9.050;2023-08-17T11:01:52;27.10;99.90
13488;DHT22;6816;48.506;9.050;2023-08-17T11:04:52;27.20;99.90
13488;DHT22;6816;48.506;9.050;2023-08-17T11:07:53;27.30;99.90
13488;DHT22;6816;48.506;9.050;2023-08-17T11:11:02;27.40;99.90
13488;DHT22;6816;48.506;9.050;2023-08-17T11:14:04;27.50;99.90
13488;DHT22;6816;48.506;9.050;2023-08-17T11:17:04;27.50;99.90
13488;DHT22;6816;48.506;9.050;2023-08-17T11:20:05;27.60;99.90
13488;DHT22;6816;48.506;9.050;2023-08-17T11:23:07;27.70;99.90
13488;DHT22;6816;48.506;9.050;2023-08-17T11:26:08;27.70;99.90
13488;DHT22;6816;48.506;9.050;2023-08-17T11:29:09;27.80;99.90
13488;DHT22;6816;48.506;9.050;2023-08-17T11:32:10;27.90;99.90
13488;DHT22;6816;48.506;9.050;2023-08-17T11:35:11;27.90;99.90
13488;DHT22;6816;48.506;9.050;2023-08-17T11:38:12;28.00;99.90
13488;DHT22;6816;48.506;9.050;2023-08-17T11:41:13;28.00;99.90
13488;DHT22;6816;48.506;9.050;2023-08-17T11:44:17;28.10;99.90
13488;DHT22;6816;48.506;9.050;2023-08-17T11:47:18;28.10;99.90
13488;DHT22;6816;48.506;9.050;2023-08-17T11:50:19;28.20;99.90
13488;DHT22;6816;48.506;9.050;2023-08-17T11:53:19;28.30;99.90
13488;DHT22;6816;48.506;9.050;2023-08-17T11:56:20;28.40;99.90
13488;DHT22;6816;48.506;9.050;2023-08-17T11:59:21;28.50;99.90
13488;DHT22;6816;48.506;9.050;2023-08-17T12:02:23;28.50;99.90
13488;DHT22;6816;48.506;9.050;2023-08-17T12:05:25;28.70;99.90
13488;DHT22;6816;48.506;9.050;2023-08-17T12:08:29;28.70;99.90
13488;DHT22;6816;48.506;9.050;2023-08-17T12:11:30;28.70;99.90
13488;DHT22;6816;48.506;9.050;2023-08-17T12:14:30;28.70;99.90
13488;DHT22;6816;48.506;9.050;2023-08-17T12:17:31;28.60;99.90
13488;DHT22;6816;48.506;9.050;2023-08-17T12:20:35;28.60;99.90
13488;DHT22;6816;48.506;9.050;2023-08-17T12:23:36;28.50;99.90
13488;DHT22;6816;48.506;9.050;2023-08-17T12:26:41;28.60;99.90
13488;DHT22;6816;48.506;9.050;2023-08-17T12:29:48;28.50;99.90
13488;DHT22;6816;48.506;9.050;2023-08-17T12:32:49;28.50;99.90
13488;DHT22;6816;48.506;9.050;2023-08-17T12:35:49;28.40;99.90
13488;DHT22;6816;48.506;9.050;2023-08-17T12:38:50;28.40;99.90
13488;DHT22;6816;48.506;9.050;2023-08-17T12:41:51;28.30;99.90
13488;DHT22;6816;48.506;9.050;2023-08-17T12:44:51;28.30;99.90
13488;DHT22;6816;48.506;9.050;2023-08-17T12:47:52;28.30;99.90
13488;DHT22;6816;48.506;9.050;2023-08-17T12:50:52;28.20;99.90
13488;DHT22;6816;48.506;9.050;2023-08-17T12:53:53;28.20;99.90
13488;DHT22;6816;48.506;9.050;2023-08-17T12:56:53;28.20;99.90
13488;DHT22;6816;48.506;9.050;2023-08-17T12:59:54;28.10;99.90
13488;DHT22;6816;48.506;9.050;2023-08-17T13:02:55;28.10;99.90
13488;DHT22;6816;48.506;9.050;2023-08-17T13:05:56;28.00;99.90
13488;DHT22;6816;48.506;9.050;2023-08-17T13:08:56;27.90;99.90
13488;DHT22;6816;48.506;9.050;2023-08-17T13:11:57;27.90;99.90
13488;DHT22;6816;48.506;9.050;2023-08-17T13:14:57;27.80;99.90
13488;DHT22;6816;48.506;9.050;2023-08-17T13:17:58;27.80;99.90
13488;DHT22;6816;48.506;9.050;2023-08-17T13:20:59;27.70;99.90
13488;DHT22;6816;48.506;9.050;2023-08-17T13:24:00;27.60;99.90
13488;DHT22;6816;48.506;9.050;2023-08-17T13:27:00;27.60;99.90
13488;DHT22;6816;48.506;9.050;2023-08-17T13:30:01;27.50;99.90
13488;DHT22;6816;48.506;9.050;2023-08-17T13:33:02;27.40;99.90
13488;DHT22;6816;48.506;9.050;2023-08-17T13:36:02;27.40;99.90
13488;DHT22;6816;48.506;9.050;2023-08-17T13:39:03;27.30;99.90
13488;DHT22;6816;48.506;9.050;2023-08-17T13:42:04;27.30;99.90
13488;DHT22;6816;48.506;9.050;2023-08-17T13:45:05;27.20;99.90
13488;DHT22;6816;48.506;9.050;2023-08-17T13:48:09;27.20;99.90
13488;DHT22;6816;48.506;9.050;2023-08-17T13:51:09;27.10;99.90
13488;DHT22;6816;48.506;9.050;2023-08-17T13:54:11;27.10;99.90
13488;DHT22;6816;48.506;9.050;2023-08-17T13:57:12;27.10;99.90
13488;DHT22;6816;48.506;9.050;2023-08-17T14:00:13;27.10;99.90
13488;DHT22;6816;48.506;9.050;2023-08-17T14:03:13;27.10;99.90
13488;DHT22;6816;48.506;9.050;2023-08-17T14:06:14;27.10;99.90
13488;DHT22;6816;48.506;9.050;2023-08-17T14:09:16;27.10;99.90
13488;DHT22;6816;48.506;9.050;2023-08-17T14:12:16;27.00;99.90
13488;DHT22;6816;48.506;9.050;2023-08-17T14:15:17;27.00;99.90
13488;DHT22;6816;48.506;9.050;2023-08-17T14:18:17;27.00;99.90
13488;DHT22;6816;48.506;9.050;2023-08-17T14:21:18;27.10;99.90
13488;DHT22;6816;48.506;9.050;2023-08-17T14:24:19;27.20;99.90
13488;DHT22;6816;48.506;9.050;2023-08-17T14:27:19;27.30;99.90
13488;DHT22;6816;48.506;9.050;2023-08-17T14:30:20;27.50;99.90
13488;DHT22;6816;48.506;9.050;2023-08-17T14:33:20;27.70;99.90
13488;DHT22;6816;48.506;9.050;2023-08-17T14:36:21;28.10;99.90
13488;DHT22;6816;48.506;9.050;2023-08-17T14:39:22;28.40;99.90
13488;DHT22;6816;48.506;9.050;2023-08-17T14:42:22;28.70;99.90
13488;DHT22;6816;48.506;9.050;2023-08-17T14:45:24;29.10;99.90
13488;DHT22;6816;48.506;9.050;2023-08-17T14:48:25;29.40;99.90
13488;DHT22;6816;48.506;9.050;2023-08-17T14:51:28;29.70;99.90
13488;DHT22;6816;48.506;9.050;2023-08-17T14:54:28;30.00;99.90
13488;DHT22;6816;48.506;9.050;2023-08-17T14:57:30;30.30;99.90
13488;DHT22;6816;48.506;9.050;2023-08-17T15:00:30;30.40;99.90
13488;DHT22;6816;48.506;9.050;2023-08-17T15:03:31;30.50;99.90
13488;DHT22;6816;48.506;9.050;2023-08-17T15:06:32;30.60;99.90
13488;DHT22;6816;48.506;9.050;2023-08-17T15:09:32;30.70;99.90
13488;DHT22;6816;48.506;9.050;2023-08-17T15:12:33;30.80;99.90
13488;DHT22;6816;48.506;9.050;2023-08-17T15:15:33;30.90;99.90
13488;DHT22;6816;48.506;9.050;2023-08-17T15:18:34;31.00;99.90
13488;DHT22;6816;48.506;9.050;2023-08-17T15:21:35;31.10;99.80
13488;DHT22;6816;48.506;9.050;2023-08-17T15:24:35;31.10;99.30
13488;DHT22;6816;48.506;9.050;2023-08-17T15:27:36;31.20;98.80
13488;DHT22;6816;48.506;9.050;2023-08-17T15:30:37;31.20;98.60
13488;DHT22;6816;48.506;9.050;2023-08-17T15:33:37;31.20;98.10
13488;DHT22;6816;48.506;9.050;2023-08-17T15:36:38;31.20;97.90
13488;DHT22;6816;48.506;9.050;2023-08-17T15:39:39;31.10;97.50
13488;DHT22;6816;48.506;9.050;2023-08-17T15:42:39;31.10;97.10
13488;DHT22;6816;48.506;9.050;2023-08-17T15:45:40;31.00;96.90
13488;DHT22;6816;48.506;9.050;2023-08-17T15:48:40;31.00;96.90
13488;DHT22;6816;48.506;9.050;2023-08-17T15:51:41;30.90;96.90
13488;DHT22;6816;48.506;9.050;2023-08-17T15:54:42;30.90;96.90
13488;DHT22;6816;48.506;9.050;2023-08-17T15:57:42;30.80;96.80
13488;DHT22;6816;48.506;9.050;2023-08-17T16:00:43;30.70;96.70
13488;DHT22;6816;48.506;9.050;2023-08-17T16:03:44;30.70;96.70
13488;DHT22;6816;48.506;9.050;2023-08-17T16:06:45;30.70;96.50
13488;DHT22;6816;48.506;9.050;2023-08-17T16:09:46;30.60;96.70
13488;DHT22;6816;48.506;9.050;2023-08-17T16:12:46;30.60;96.40
13488;DHT22;6816;48.506;9.050;2023-08-17T16:15:47;30.50;96.70
13488;DHT22;6816;48.506;9.050;2023-08-17T16:18:47;30.50;96.40
13488;DHT22;6816;48.506;9.050;2023-08-17T16:21:48;30.40;96.20
13488;DHT22;6816;48.506;9.050;2023-08-17T16:24:49;30.30;96.20
13488;DHT22;6816;48.506;9.050;2023-08-17T16:27:49;30.30;95.90
13488;DHT22;6816;48.506;9.050;2023-08-17T16:30:50;30.20;95.80
13488;DHT22;6816;48.506;9.050;2023-08-17T16:33:50;30.10;95.60
13488;DHT22;6816;48.506;9.050;2023-08-17T16:36:51;30.10;95.50
13488;DHT22;6816;48.506;9.050;2023-08-17T16:39:51;30.00;95.60
13488;DHT22;6816;48.506;9.050;2023-08-17T16:42:52;30.00;95.80
13488;DHT22;6816;48.506;9.050;2023-08-17T16:45:53;29.90;95.70
13488;DHT22;6816;48.506;9.050;2023-08-17T16:48:53;29.90;95.30
13488;DHT22;6816;48.506;9.050;2023-08-17T16:51:54;29.80;95.70
13488;DHT22;6816;48.506;9.050;2023-08-17T16:54:55;29.70;95.20
13488;DHT22;6816;48.506;9.050;2023-08-17T16:57:55;29.70;95.10
13488;DHT22;6816;48.506;9.050;2023-08-17T17:00:56;29.60;95.00
13488;DHT22;6816;48.506;9.050;2023-08-17T17:03:56;29.50;95.00
13488;DHT22;6816;48.506;9.050;2023-08-17T17:06:57;29.40;95.10
13488;DHT22;6816;48.506;9.050;2023-08-17T17:09:57;29.40;95.20
13488;DHT22;6816;48.506;9.050;2023-08-17T17:12:58;29.30;95.30
13488;DHT22;6816;48.506;9.050;2023-08-17T17:15:58;29.20;95.30
13488;DHT22;6816;48.506;9.050;2023-08-17T17:18:59;29.20;95.40
13488;DHT22;6816;48.506;9.050;2023-08-17T17:22:00;29.10;95.50
13488;DHT22;6816;48.506;9.050;2023-08-17T17:25:00;29.10;95.70
13488;DHT22;6816;48.506;9.050;2023-08-17T17:28:04;29.00;95.70
13488;DHT22;6816;48.506;9.050;2023-08-17T17:31:05;29.00;95.90
13488;DHT22;6816;48.506;9.050;2023-08-17T17:34:06;28.90;96.00
13488;DHT22;6816;48.506;9.050;2023-08-17T17:37:07;28.90;96.20
13488;DHT22;6816;48.506;9.050;2023-08-17T17:40:08;28.80;96.00
13488;DHT22;6816;48.506;9.050;2023-08-17T17:43:09;28.70;96.10
13488;DHT22;6816;48.506;9.050;2023-08-17T17:46:10;28.70;96.20
13488;DHT22;6816;48.506;9.050;2023-08-17T17:49:10;28.60;96.30
13488;DHT22;6816;48.506;9.050;2023-08-17T17:52:11;28.60;96.40
13488;DHT22;6816;48.506;9.050;2023-08-17T17:55:11;28.50;96.30
13488;DHT22;6816;48.506;9.050;2023-08-17T17:58:12;28.50;96.50
13488;DHT22;6816;48.506;9.050;2023-08-17T18:01:12;28.40;96.50
13488;DHT22;6816;48.506;9.050;2023-08-17T18:04:13;28.40;96.70
13488;DHT22;6816;48.506;9.050;2023-08-17T18:07:14;28.30;96.90
13488;DHT22;6816;48.506;9.050;2023-08-17T18:10:14;28.30;97.00
13488;DHT22;6816;48.506;9.050;2023-08-17T18:13:15;28.20;97.10
13488;DHT22;6816;48.506;9.050;2023-08-17T18:16:15;28.20;97.30
13488;DHT22;6816;48.506;9.050;2023-08-17T18:19:16;28.10;97.30
13488;DHT22;6816;48.506;9.050;2023-08-17T18:22:17;28.10;97.40
13488;DHT22;6816;48.506;9.050;2023-08-17T18:25:17;28.00;97.50
13488;DHT22;6816;48.506;9.050;2023-08-17T18:28:18;28.00;97.70
13488;DHT22;6816;48.506;9.050;2023-08-17T18:31:19;28.00;97.80
13488;DHT22;6816;48.506;9.050;2023-08-17T18:34:19;27.90;97.80
13488;DHT22;6816;48.506;9.050;2023-08-17T18:37:20;27.80;97.80
13488;DHT22;6816;48.506;9.050;2023-08-17T18:40:21;27.70;97.90
13488;DHT22;6816;48.506;9.050;2023-08-17T18:43:21;27.70;98.00
13488;DHT22;6816;48.506;9.050;2023-08-17T18:46:22;27.60;98.00
13488;DHT22;6816;48.506;9.050;2023-08-17T18:49:23;27.60;98.10
13488;DHT22;6816;48.506;9.050;2023-08-17T18:52:24;27.50;98.20
13488;DHT22;6816;48.506;9.050;2023-08-17T18:55:24;27.40;98.30
13488;DHT22;6816;48.506;9.050;2023-08-17T18:58:27;27.40;98.50
13488;DHT22;6816;48.506;9.050;2023-08-17T19:01:27;27.30;98.60
13488;DHT22;6816;48.506;9.050;2023-08-17T19:04:28;27.20;98.80
13488;DHT22;6816;48.506;9.050;2023-08-17T19:07:29;27.20;98.90
13488;DHT22;6816;48.506;9.050;2023-08-17T19:10:29;27.10;99.00
13488;DHT22;6816;48.506;9.050;2023-08-17T19:13:30;27.00;99.10
13488;DHT22;6816;48.506;9.050;2023-08-17T19:16:31;27.00;99.20
13488;DHT22;6816;48.506;9.050;2023-08-17T19:19:31;27.00;99.40
13488;DHT22;6816;48.506;9.050;2023-08-17T19:22:32;26.90;99.50